createdAt,value
2024-02-28T12:06:44.331Z,9.99
2024-02-28T12:09:11.009Z,9.81
2024-02-28T12:11:37.617Z,10.70
2024-02-28T12:14:04.218Z,11.50
2024-02-28T12:16:30.797Z,12.32
2024-02-28T12:18:57.448Z,12.39
2024-02-28T12:21:24.097Z,11.76
2024-02-28T12:23:50.755Z,11.93
2024-02-28T12:26:17.380Z,11.74
2024-02-28T12:28:43.952Z,11.75
2024-02-28T12:31:10.565Z,11.51
2024-02-28T12:33:37.234Z,10.96
2024-02-28T12:36:03.839Z,10.52
2024-02-28T12:38:30.418Z,9.74
2024-02-28T12:40:56.995Z,9.75
2024-02-28T12:43:23.562Z,9.81
2024-02-28T12:45:50.138Z,9.29
2024-02-28T12:48:16.798Z,8.49
2024-02-28T12:50:43.416Z,7.79
2024-02-28T12:53:10.016Z,8.24
2024-02-28T12:55:36.906Z,8.82
2024-02-28T12:58:03.613Z,8.65
2024-02-28T13:00:30.331Z,8.61
2024-02-28T13:02:57.068Z,8.74
2024-02-28T13:05:23.641Z,9.22
2024-02-28T13:07:50.221Z,9.39
2024-02-28T13:10:16.796Z,9.22
2024-02-28T13:12:43.461Z,9.52
2024-02-28T13:15:10.087Z,9.38
2024-02-28T13:17:36.746Z,9.68
2024-02-28T13:20:03.364Z,9.74
2024-02-28T13:22:29.970Z,9.58
2024-02-28T13:24:56.636Z,9.59
2024-02-28T13:27:23.260Z,9.71
2024-02-28T13:29:49.888Z,9.39
2024-02-28T13:32:16.466Z,9.91
2024-02-28T13:34:45.451Z,10.50
2024-02-28T13:37:13.392Z,10.24
2024-02-28T13:39:39.973Z,10.64
2024-02-28T13:42:06.563Z,10.43
2024-02-28T13:44:33.147Z,10.74
2024-02-28T13:46:59.762Z,10.91
2024-02-28T13:49:26.318Z,11.91
2024-02-28T13:51:52.920Z,11.20
2024-02-28T13:54:19.541Z,11.26
2024-02-28T13:56:46.132Z,11.88
2024-02-28T13:59:12.743Z,11.54
2024-02-28T14:01:39.449Z,11.31
2024-02-28T14:04:06.202Z,12.13
2024-02-28T14:06:32.978Z,11.02
2024-02-28T14:08:59.618Z,11.28
2024-02-28T14:11:26.219Z,11.56
2024-02-28T14:13:52.793Z,11.39
2024-02-28T14:16:19.400Z,10.93
2024-02-28T14:18:46.039Z,10.89
2024-02-28T14:21:12.656Z,11.07
2024-02-28T14:23:39.230Z,11.84
2024-02-28T14:26:05.833Z,11.21
2024-02-28T14:28:32.423Z,12.18
2024-02-28T14:30:59.060Z,12.34
2024-02-28T14:33:25.741Z,12.12
2024-02-28T14:35:52.386Z,12.06
2024-02-28T14:38:18.977Z,11.84
2024-02-28T14:40:45.562Z,12.37
2024-02-28T14:43:12.130Z,13.22
2024-02-28T14:45:41.023Z,12.91
2024-02-28T14:48:07.938Z,12.98
2024-02-28T14:50:34.588Z,13.05
2024-02-28T14:53:01.175Z,13.70
2024-02-28T14:55:27.757Z,13.92
2024-02-28T14:57:54.387Z,14.13
2024-02-28T15:00:21.150Z,13.82
2024-02-28T15:02:47.894Z,13.99
2024-02-28T15:05:14.582Z,14.07
2024-02-28T15:07:41.205Z,14.80
2024-02-28T15:10:08.083Z,14.84
2024-02-28T15:12:35.002Z,14.97
2024-02-28T15:15:01.648Z,14.80
2024-02-28T15:17:28.292Z,14.61
2024-02-28T15:19:54.955Z,15.33
2024-02-28T15:22:21.507Z,15.29
2024-02-28T15:24:48.102Z,14.93
2024-02-28T15:27:14.707Z,14.61
2024-02-28T15:29:41.957Z,15.80
2024-02-28T15:32:08.660Z,15.80
2024-02-28T15:34:35.247Z,15.93
2024-02-28T15:37:01.946Z,15.51
2024-02-28T15:39:28.637Z,15.14
2024-02-28T15:41:55.231Z,15.09
2024-02-28T15:44:21.906Z,15.10
2024-02-28T15:46:48.499Z,14.32
2024-02-28T15:49:18.132Z,14.15
2024-02-28T15:51:49.013Z,13.69
2024-02-28T15:54:15.664Z,13.45
2024-02-28T15:56:42.244Z,13.18
2024-02-28T15:59:08.836Z,13.32
2024-02-28T16:01:35.614Z,13.08
2024-02-28T16:04:02.342Z,13.30
2024-02-28T16:06:36.724Z,12.33
2024-02-28T16:09:06.427Z,12.52
2024-02-28T16:11:33.003Z,12.33
2024-02-28T16:13:59.593Z,13.65
2024-02-28T16:16:26.177Z,15.33
2024-02-28T16:18:52.775Z,15.67
2024-02-28T16:21:19.347Z,15.40
2024-02-28T16:23:45.967Z,15.40
2024-02-28T16:26:12.605Z,15.80
2024-02-28T16:28:39.173Z,15.87
2024-02-28T16:31:05.810Z,15.52
2024-02-28T16:33:32.408Z,15.70
2024-02-28T16:35:59.013Z,15.58
2024-02-28T16:38:25.608Z,15.09
2024-02-28T16:40:52.198Z,14.21
2024-02-28T16:43:18.773Z,13.70
2024-02-28T16:45:45.389Z,14.91
2024-02-28T16:48:12.059Z,15.06
2024-02-28T16:50:38.678Z,15.15
2024-02-28T16:53:05.273Z,14.99
2024-02-28T16:55:31.851Z,15.09
2024-02-28T16:57:58.473Z,14.84
2024-02-28T17:00:25.234Z,14.71
2024-02-28T17:02:51.867Z,14.40
2024-02-28T17:05:18.480Z,14.77
2024-02-28T17:07:45.052Z,14.79
2024-02-28T17:10:11.734Z,14.50
2024-02-28T17:12:38.408Z,14.15
2024-02-28T17:15:04.971Z,14.08
2024-02-28T17:17:31.599Z,13.86
2024-02-28T17:19:58.727Z,13.94
2024-02-28T17:22:25.368Z,14.22
2024-02-28T17:24:51.944Z,14.16
2024-02-28T17:27:18.542Z,13.95
2024-02-28T17:29:45.119Z,13.67
2024-02-28T17:32:11.523Z,14.27
2024-02-28T17:34:37.960Z,14.23
2024-02-28T17:37:04.403Z,14.17
2024-02-28T17:39:30.904Z,14.18
2024-02-28T17:41:57.362Z,13.49
2024-02-28T17:44:23.799Z,13.93
2024-02-28T17:46:50.221Z,14.77
2024-02-28T17:49:16.716Z,15.04
2024-02-28T17:51:43.192Z,14.55
2024-02-28T17:54:09.648Z,14.74
2024-02-28T17:56:36.061Z,14.14
2024-02-28T17:59:02.486Z,13.20
2024-02-28T18:01:29.073Z,12.88
2024-02-28T18:03:55.603Z,14.06
2024-02-28T18:06:22.037Z,13.51
2024-02-28T18:08:48.442Z,13.67
2024-02-28T18:11:14.892Z,13.92
2024-02-28T18:13:41.350Z,12.86
2024-02-28T18:16:07.897Z,13.22
2024-02-28T18:18:34.388Z,12.60
2024-02-28T18:21:00.865Z,12.56
2024-02-28T18:23:33.949Z,11.68
2024-02-28T18:26:01.393Z,10.99
2024-02-28T18:28:27.826Z,11.03
2024-02-28T18:30:54.465Z,10.38
2024-02-28T18:33:21.077Z,10.56
2024-02-28T18:35:47.689Z,10.92
2024-02-28T18:38:14.295Z,9.77
2024-02-28T18:40:40.974Z,9.84
2024-02-28T18:43:07.620Z,9.94
2024-02-28T18:45:34.255Z,9.75
2024-02-28T18:48:00.887Z,9.99
2024-02-28T18:50:27.520Z,9.91
2024-02-28T18:52:54.107Z,9.63
2024-02-28T18:55:20.673Z,9.21
2024-02-28T18:57:47.341Z,8.99
2024-02-28T19:00:13.920Z,9.07
2024-02-28T19:02:40.485Z,8.69
2024-02-28T19:05:07.099Z,9.09
2024-02-28T19:07:33.673Z,9.90
2024-02-28T19:10:00.414Z,10.39
2024-02-28T19:12:27.052Z,10.28
2024-02-28T19:14:53.653Z,9.09
2024-02-28T19:17:20.228Z,9.77
2024-02-28T19:19:46.846Z,10.56
2024-02-28T19:22:13.436Z,10.27
2024-02-28T19:24:40.099Z,11.47
2024-02-28T19:27:06.674Z,10.50
2024-02-28T19:29:33.271Z,11.38
2024-02-28T19:31:59.836Z,12.25
2024-02-28T19:34:26.407Z,12.30
2024-02-28T19:36:53.064Z,12.58
2024-02-28T19:39:19.660Z,12.21
2024-02-28T19:41:46.264Z,12.61
2024-02-28T19:44:12.869Z,12.17
2024-02-28T19:46:39.447Z,12.29
2024-02-28T19:49:06.086Z,12.43
2024-02-28T19:51:32.679Z,12.59
2024-02-28T19:53:59.285Z,12.30
2024-02-28T19:56:25.903Z,11.97
2024-02-28T19:58:52.649Z,11.49
2024-02-28T20:01:19.400Z,11.48
2024-02-28T20:03:46.138Z,11.79
2024-02-28T20:06:12.811Z,10.98
2024-02-28T20:08:39.390Z,12.10
2024-02-28T20:11:06.096Z,11.91
2024-02-28T20:13:32.713Z,12.53
2024-02-28T20:15:59.355Z,12.32
2024-02-28T20:18:25.972Z,12.63
2024-02-28T20:20:52.595Z,12.24
2024-02-28T20:23:21.190Z,12.94
2024-02-28T20:25:47.952Z,12.51
2024-02-28T20:28:14.559Z,12.22
2024-02-28T20:30:41.193Z,11.72
2024-02-28T20:33:07.820Z,11.93
2024-02-28T20:35:34.459Z,12.63
2024-02-28T20:38:01.057Z,12.66
2024-02-28T20:40:27.641Z,13.24
2024-02-28T20:42:54.233Z,12.78
2024-02-28T20:45:20.796Z,12.38
2024-02-28T20:47:47.440Z,12.92
2024-02-28T20:50:14.033Z,12.75
2024-02-28T20:52:40.607Z,12.67
2024-02-28T20:55:07.354Z,13.56
2024-02-28T20:57:34.015Z,14.14
